sensor_id;sensor_type;location;lat;lon;timestamp;P1;durP1;ratioP1;P2;durP2;ratioP2
65174;SDS011;51761;42.126;24.752;2023-02-10T00:00:43;35.90;;;13.82;;
65174;SDS011;51761;42.126;24.752;2023-02-10T00:03:08;36.05;;;12.27;;
65174;SDS011;51761;42.126;24.752;2023-02-10T00:05:34;43.42;;;14.18;;
65174;SDS011;51761;42.126;24.752;2023-02-10T00:07:59;42.90;;;13.93;;
65174;SDS011;51761;42.126;24.752;2023-02-10T00:10:25;36.40;;;13.65;;
65174;SDS011;51761;42.126;24.752;2023-02-10T00:12:50;33.50;;;13.57;;
65174;SDS011;51761;42.126;24.752;2023-02-10T00:15:16;43.45;;;14.60;;
65174;SDS011;51761;42.126;24.752;2023-02-10T00:17:41;36.90;;;14.05;;
65174;SDS011;51761;42.126;24.752;2023-02-10T00:20:07;53.75;;;14.15;;
65174;SDS011;51761;42.126;24.752;2023-02-10T00:22:33;44.25;;;14.27;;
65174;SDS011;51761;42.126;24.752;2023-02-10T00:24:59;41.22;;;13.70;;
65174;SDS011;51761;42.126;24.752;2023-02-10T00:27:24;41.67;;;15.93;;
65174;SDS011;51761;42.126;24.752;2023-02-10T00:29:50;34.45;;;13.95;;
65174;SDS011;51761;42.126;24.752;2023-02-10T00:32:16;44.03;;;14.57;;
65174;SDS011;51761;42.126;24.752;2023-02-10T00:34:45;42.33;;;14.60;;
65174;SDS011;51761;42.126;24.752;2023-02-10T00:37:10;45.33;;;15.13;;
65174;SDS011;51761;42.126;24.752;2023-02-10T00:39:36;50.67;;;15.00;;
65174;SDS011;51761;42.126;24.752;2023-02-10T00:42:02;35.35;;;15.38;;
65174;SDS011;51761;42.126;24.752;2023-02-10T00:44:27;49.63;;;15.07;;
65174;SDS011;51761;42.126;24.752;2023-02-10T00:46:53;43.92;;;15.15;;
65174;SDS011;51761;42.126;24.752;2023-02-10T00:49:18;46.03;;;16.60;;
65174;SDS011;51761;42.126;24.752;2023-02-10T00:51:44;45.30;;;16.20;;
65174;SDS011;51761;42.126;24.752;2023-02-10T00:54:13;50.38;;;18.83;;
65174;SDS011;51761;42.126;24.752;2023-02-10T00:56:39;55.17;;;17.10;;
65174;SDS011;51761;42.126;24.752;2023-02-10T00:59:05;54.17;;;19.58;;
65174;SDS011;51761;42.126;24.752;2023-02-10T01:01:30;48.58;;;18.52;;
65174;SDS011;51761;42.126;24.752;2023-02-10T01:03:56;52.53;;;19.23;;
65174;SDS011;51761;42.126;24.752;2023-02-10T01:06:21;51.67;;;19.23;;
65174;SDS011;51761;42.126;24.752;2023-02-10T01:08:47;47.15;;;18.30;;
65174;SDS011;51761;42.126;24.752;2023-02-10T01:11:13;57.58;;;19.92;;
65174;SDS011;51761;42.126;24.752;2023-02-10T01:13:39;54.58;;;21.58;;
65174;SDS011;51761;42.126;24.752;2023-02-10T01:16:10;49.30;;;19.75;;
65174;SDS011;51761;42.126;24.752;2023-02-10T01:18:39;56.55;;;19.63;;
65174;SDS011;51761;42.126;24.752;2023-02-10T01:21:09;50.88;;;20.67;;
65174;SDS011;51761;42.126;24.752;2023-02-10T01:23:37;57.55;;;20.67;;
65174;SDS011;51761;42.126;24.752;2023-02-10T01:26:02;51.80;;;21.95;;
65174;SDS011;51761;42.126;24.752;2023-02-10T01:28:28;60.55;;;21.40;;
65174;SDS011;51761;42.126;24.752;2023-02-10T01:30:54;60.75;;;19.35;;
65174;SDS011;51761;42.126;24.752;2023-02-10T01:33:19;65.13;;;20.48;;
65174;SDS011;51761;42.126;24.752;2023-02-10T01:35:45;60.33;;;22.25;;
65174;SDS011;51761;42.126;24.752;2023-02-10T01:38:10;55.72;;;19.73;;
65174;SDS011;51761;42.126;24.752;2023-02-10T01:40:36;60.92;;;21.17;;
65174;SDS011;51761;42.126;24.752;2023-02-10T01:43:02;59.13;;;20.08;;
65174;SDS011;51761;42.126;24.752;2023-02-10T01:45:32;50.35;;;19.55;;
65174;SDS011;51761;42.126;24.752;2023-02-10T01:48:02;61.35;;;21.23;;
65174;SDS011;51761;42.126;24.752;2023-02-10T01:50:30;46.88;;;20.58;;
65174;SDS011;51761;42.126;24.752;2023-02-10T01:53:14;53.15;;;18.63;;
65174;SDS011;51761;42.126;24.752;2023-02-10T01:55:41;57.63;;;20.65;;
65174;SDS011;51761;42.126;24.752;2023-02-10T01:58:10;57.33;;;21.38;;
65174;SDS011;51761;42.126;24.752;2023-02-10T02:00:38;52.58;;;20.75;;
65174;SDS011;51761;42.126;24.752;2023-02-10T02:03:04;52.88;;;20.30;;
65174;SDS011;51761;42.126;24.752;2023-02-10T02:07:57;55.35;;;20.85;;
65174;SDS011;51761;42.126;24.752;2023-02-10T02:10:31;53.17;;;19.65;;
65174;SDS011;51761;42.126;24.752;2023-02-10T02:13:18;49.53;;;19.75;;
65174;SDS011;51761;42.126;24.752;2023-02-10T02:16:00;56.92;;;21.42;;
65174;SDS011;51761;42.126;24.752;2023-02-10T02:26:30;64.82;;;21.67;;
65174;SDS011;51761;42.126;24.752;2023-02-10T02:37:02;72.82;;;22.33;;
65174;SDS011;51761;42.126;24.752;2023-02-10T02:39:32;66.97;;;22.10;;
65174;SDS011;51761;42.126;24.752;2023-02-10T02:42:20;70.78;;;23.33;;
65174;SDS011;51761;42.126;24.752;2023-02-10T02:44:45;97.20;;;23.83;;
65174;SDS011;51761;42.126;24.752;2023-02-10T02:47:15;72.60;;;23.00;;
65174;SDS011;51761;42.126;24.752;2023-02-10T02:52:51;68.10;;;21.33;;
65174;SDS011;51761;42.126;24.752;2023-02-10T02:55:49;77.88;;;23.20;;
65174;SDS011;51761;42.126;24.752;2023-02-10T02:58:33;85.78;;;23.05;;
65174;SDS011;51761;42.126;24.752;2023-02-10T03:01:03;66.07;;;21.42;;
65174;SDS011;51761;42.126;24.752;2023-02-10T03:03:34;74.32;;;21.83;;
65174;SDS011;51761;42.126;24.752;2023-02-10T03:06:01;79.93;;;22.85;;
65174;SDS011;51761;42.126;24.752;2023-02-10T03:08:31;61.30;;;21.92;;
65174;SDS011;51761;42.126;24.752;2023-02-10T03:10:58;51.95;;;20.58;;
65174;SDS011;51761;42.126;24.752;2023-02-10T03:13:24;67.07;;;18.58;;
65174;SDS011;51761;42.126;24.752;2023-02-10T03:15:49;77.28;;;22.65;;
65174;SDS011;51761;42.126;24.752;2023-02-10T03:18:15;55.25;;;21.02;;
65174;SDS011;51761;42.126;24.752;2023-02-10T03:20:41;66.40;;;21.60;;
65174;SDS011;51761;42.126;24.752;2023-02-10T03:23:06;63.13;;;20.67;;
65174;SDS011;51761;42.126;24.752;2023-02-10T03:25:32;64.65;;;21.70;;
65174;SDS011;51761;42.126;24.752;2023-02-10T03:27:58;59.75;;;21.73;;
65174;SDS011;51761;42.126;24.752;2023-02-10T03:30:23;57.97;;;21.88;;
65174;SDS011;51761;42.126;24.752;2023-02-10T03:32:49;58.38;;;22.08;;
65174;SDS011;51761;42.126;24.752;2023-02-10T03:35:16;56.67;;;21.63;;
65174;SDS011;51761;42.126;24.752;2023-02-10T03:37:42;66.72;;;21.20;;
65174;SDS011;51761;42.126;24.752;2023-02-10T03:40:07;69.68;;;21.55;;
65174;SDS011;51761;42.126;24.752;2023-02-10T03:42:33;66.35;;;22.73;;
65174;SDS011;51761;42.126;24.752;2023-02-10T03:44:59;75.65;;;24.15;;
65174;SDS011;51761;42.126;24.752;2023-02-10T03:47:24;62.00;;;22.95;;
65174;SDS011;51761;42.126;24.752;2023-02-10T03:49:50;70.68;;;24.60;;
65174;SDS011;51761;42.126;24.752;2023-02-10T03:52:16;64.10;;;24.00;;
65174;SDS011;51761;42.126;24.752;2023-02-10T03:54:41;63.08;;;23.52;;
65174;SDS011;51761;42.126;24.752;2023-02-10T03:57:07;61.38;;;25.55;;
65174;SDS011;51761;42.126;24.752;2023-02-10T03:59:32;61.20;;;25.15;;
65174;SDS011;51761;42.126;24.752;2023-02-10T04:01:58;65.13;;;23.85;;
65174;SDS011;51761;42.126;24.752;2023-02-10T04:04:24;66.03;;;24.90;;
65174;SDS011;51761;42.126;24.752;2023-02-10T04:06:50;59.55;;;23.83;;
65174;SDS011;51761;42.126;24.752;2023-02-10T04:09:15;71.85;;;24.75;;
65174;SDS011;51761;42.126;24.752;2023-02-10T04:11:40;57.17;;;24.35;;
65174;SDS011;51761;42.126;24.752;2023-02-10T04:14:06;64.40;;;24.02;;
65174;SDS011;51761;42.126;24.752;2023-02-10T04:16:32;65.20;;;23.58;;
65174;SDS011;51761;42.126;24.752;2023-02-10T04:18:58;65.18;;;23.42;;
65174;SDS011;51761;42.126;24.752;2023-02-10T04:21:24;59.60;;;23.35;;
65174;SDS011;51761;42.126;24.752;2023-02-10T04:23:50;61.90;;;23.88;;
65174;SDS011;51761;42.126;24.752;2023-02-10T04:26:15;75.68;;;24.33;;
65174;SDS011;51761;42.126;24.752;2023-02-10T04:28:41;64.72;;;25.17;;
65174;SDS011;51761;42.126;24.752;2023-02-10T04:31:07;60.67;;;20.65;;
65174;SDS011;51761;42.126;24.752;2023-02-10T04:33:34;64.07;;;24.02;;
65174;SDS011;51761;42.126;24.752;2023-02-10T04:36:00;68.18;;;25.10;;
65174;SDS011;51761;42.126;24.752;2023-02-10T04:38:27;68.53;;;25.90;;
65174;SDS011;51761;42.126;24.752;2023-02-10T04:40:53;67.93;;;25.65;;
65174;SDS011;51761;42.126;24.752;2023-02-10T04:43:19;69.05;;;26.17;;
65174;SDS011;51761;42.126;24.752;2023-02-10T04:45:45;71.78;;;25.52;;
65174;SDS011;51761;42.126;24.752;2023-02-10T04:48:10;60.00;;;25.13;;
65174;SDS011;51761;42.126;24.752;2023-02-10T04:50:37;63.15;;;25.75;;
65174;SDS011;51761;42.126;24.752;2023-02-10T04:53:03;68.88;;;24.92;;
65174;SDS011;51761;42.126;24.752;2023-02-10T04:55:28;74.35;;;30.35;;
65174;SDS011;51761;42.126;24.752;2023-02-10T04:57:54;84.38;;;31.35;;
65174;SDS011;51761;42.126;24.752;2023-02-10T05:00:19;146.45;;;51.55;;
65174;SDS011;51761;42.126;24.752;2023-02-10T05:02:45;91.80;;;31.27;;
65174;SDS011;51761;42.126;24.752;2023-02-10T05:05:11;66.90;;;27.33;;
65174;SDS011;51761;42.126;24.752;2023-02-10T05:07:37;73.03;;;26.25;;
65174;SDS011;51761;42.126;24.752;2023-02-10T05:10:03;78.32;;;28.20;;
65174;SDS011;51761;42.126;24.752;2023-02-10T05:12:29;73.85;;;26.33;;
65174;SDS011;51761;42.126;24.752;2023-02-10T05:14:55;74.40;;;25.65;;
65174;SDS011;51761;42.126;24.752;2023-02-10T05:17:20;67.53;;;25.10;;
65174;SDS011;51761;42.126;24.752;2023-02-10T05:19:46;65.35;;;23.70;;
65174;SDS011;51761;42.126;24.752;2023-02-10T05:22:11;64.68;;;22.65;;
65174;SDS011;51761;42.126;24.752;2023-02-10T05:24:37;61.05;;;22.52;;
65174;SDS011;51761;42.126;24.752;2023-02-10T05:27:02;64.25;;;21.88;;
65174;SDS011;51761;42.126;24.752;2023-02-10T05:29:28;57.00;;;22.25;;
65174;SDS011;51761;42.126;24.752;2023-02-10T05:31:54;61.80;;;20.23;;
65174;SDS011;51761;42.126;24.752;2023-02-10T05:34:19;63.13;;;21.83;;
65174;SDS011;51761;42.126;24.752;2023-02-10T05:36:45;57.55;;;21.70;;
65174;SDS011;51761;42.126;24.752;2023-02-10T05:39:10;56.05;;;21.00;;
65174;SDS011;51761;42.126;24.752;2023-02-10T05:41:49;53.05;;;19.90;;
65174;SDS011;51761;42.126;24.752;2023-02-10T05:44:19;55.30;;;20.05;;
65174;SDS011;51761;42.126;24.752;2023-02-10T05:46:45;58.15;;;21.65;;
65174;SDS011;51761;42.126;24.752;2023-02-10T05:49:10;62.83;;;20.95;;
65174;SDS011;51761;42.126;24.752;2023-02-10T05:51:36;53.30;;;19.63;;
65174;SDS011;51761;42.126;24.752;2023-02-10T05:54:01;77.80;;;27.40;;
65174;SDS011;51761;42.126;24.752;2023-02-10T05:56:27;48.55;;;17.63;;
65174;SDS011;51761;42.126;24.752;2023-02-10T05:58:52;48.15;;;18.90;;
65174;SDS011;51761;42.126;24.752;2023-02-10T06:01:18;47.40;;;17.65;;
65174;SDS011;51761;42.126;24.752;2023-02-10T06:03:48;49.42;;;17.38;;
65174;SDS011;51761;42.126;24.752;2023-02-10T06:06:29;43.53;;;16.10;;
65174;SDS011;51761;42.126;24.752;2023-02-10T06:09:04;49.75;;;17.23;;
65174;SDS011;51761;42.126;24.752;2023-02-10T06:11:34;49.33;;;17.13;;
65174;SDS011;51761;42.126;24.752;2023-02-10T06:14:00;43.00;;;18.35;;
65174;SDS011;51761;42.126;24.752;2023-02-10T06:16:25;48.42;;;17.48;;
65174;SDS011;51761;42.126;24.752;2023-02-10T06:18:51;38.35;;;15.95;;
65174;SDS011;51761;42.126;24.752;2023-02-10T06:21:16;46.22;;;17.02;;
65174;SDS011;51761;42.126;24.752;2023-02-10T06:23:42;43.42;;;19.77;;
65174;SDS011;51761;42.126;24.752;2023-02-10T06:26:08;51.75;;;20.25;;
65174;SDS011;51761;42.126;24.752;2023-02-10T06:28:34;45.35;;;18.38;;
65174;SDS011;51761;42.126;24.752;2023-02-10T06:30:59;45.50;;;18.02;;
65174;SDS011;51761;42.126;24.752;2023-02-10T06:33:25;47.63;;;18.30;;
65174;SDS011;51761;42.126;24.752;2023-02-10T06:35:50;40.45;;;16.55;;
65174;SDS011;51761;42.126;24.752;2023-02-10T06:38:16;41.92;;;17.25;;
65174;SDS011;51761;42.126;24.752;2023-02-10T06:40:42;45.03;;;16.60;;
65174;SDS011;51761;42.126;24.752;2023-02-10T06:43:08;45.58;;;17.60;;
65174;SDS011;51761;42.126;24.752;2023-02-10T06:45:33;48.40;;;17.67;;
65174;SDS011;51761;42.126;24.752;2023-02-10T06:48:00;35.30;;;17.05;;
65174;SDS011;51761;42.126;24.752;2023-02-10T06:50:26;41.90;;;16.83;;
65174;SDS011;51761;42.126;24.752;2023-02-10T06:52:51;40.60;;;17.20;;
65174;SDS011;51761;42.126;24.752;2023-02-10T06:55:17;48.60;;;16.40;;
65174;SDS011;51761;42.126;24.752;2023-02-10T06:57:42;45.25;;;16.45;;
65174;SDS011;51761;42.126;24.752;2023-02-10T07:00:09;42.45;;;16.45;;
65174;SDS011;51761;42.126;24.752;2023-02-10T07:02:37;45.00;;;16.80;;
65174;SDS011;51761;42.126;24.752;2023-02-10T07:05:03;39.90;;;16.77;;
65174;SDS011;51761;42.126;24.752;2023-02-10T07:07:32;39.28;;;14.57;;
65174;SDS011;51761;42.126;24.752;2023-02-10T07:09:58;38.17;;;15.50;;
65174;SDS011;51761;42.126;24.752;2023-02-10T07:12:23;47.13;;;16.52;;
65174;SDS011;51761;42.126;24.752;2023-02-10T07:14:50;41.17;;;16.60;;
65174;SDS011;51761;42.126;24.752;2023-02-10T07:17:16;43.28;;;17.23;;
65174;SDS011;51761;42.126;24.752;2023-02-10T07:19:42;37.33;;;14.85;;
65174;SDS011;51761;42.126;24.752;2023-02-10T07:22:07;39.70;;;15.70;;
65174;SDS011;51761;42.126;24.752;2023-02-10T07:24:33;27.00;;;13.18;;
65174;SDS011;51761;42.126;24.752;2023-02-10T07:26:59;38.15;;;15.13;;
65174;SDS011;51761;42.126;24.752;2023-02-10T07:29:24;29.35;;;14.20;;
65174;SDS011;51761;42.126;24.752;2023-02-10T07:31:50;30.10;;;12.38;;
65174;SDS011;51761;42.126;24.752;2023-02-10T07:34:15;27.52;;;13.70;;
65174;SDS011;51761;42.126;24.752;2023-02-10T07:36:44;27.13;;;13.13;;
65174;SDS011;51761;42.126;24.752;2023-02-10T07:39:10;29.38;;;13.48;;
65174;SDS011;51761;42.126;24.752;2023-02-10T07:41:36;30.98;;;13.13;;
65174;SDS011;51761;42.126;24.752;2023-02-10T07:44:01;29.88;;;13.15;;
65174;SDS011;51761;42.126;24.752;2023-02-10T07:46:27;28.05;;;13.98;;
65174;SDS011;51761;42.126;24.752;2023-02-10T07:48:52;31.88;;;12.63;;
65174;SDS011;51761;42.126;24.752;2023-02-10T07:51:18;30.85;;;13.63;;
65174;SDS011;51761;42.126;24.752;2023-02-10T07:53:44;32.42;;;14.38;;
65174;SDS011;51761;42.126;24.752;2023-02-10T07:56:09;33.60;;;14.77;;
65174;SDS011;51761;42.126;24.752;2023-02-10T07:58:35;35.47;;;14.32;;
65174;SDS011;51761;42.126;24.752;2023-02-10T08:01:10;29.60;;;14.02;;
65174;SDS011;51761;42.126;24.752;2023-02-10T08:03:36;41.40;;;15.00;;
65174;SDS011;51761;42.126;24.752;2023-02-10T08:06:02;35.15;;;15.55;;
65174;SDS011;51761;42.126;24.752;2023-02-10T08:08:29;33.83;;;15.60;;
65174;SDS011;51761;42.126;24.752;2023-02-10T08:10:54;33.95;;;14.27;;
65174;SDS011;51761;42.126;24.752;2023-02-10T08:13:20;35.75;;;14.75;;
65174;SDS011;51761;42.126;24.752;2023-02-10T08:15:46;29.75;;;13.52;;
65174;SDS011;51761;42.126;24.752;2023-02-10T08:18:12;28.58;;;12.77;;
65174;SDS011;51761;42.126;24.752;2023-02-10T08:20:37;33.58;;;14.82;;
65174;SDS011;51761;42.126;24.752;2023-02-10T08:23:05;29.95;;;12.73;;
65174;SDS011;51761;42.126;24.752;2023-02-10T08:25:31;26.67;;;13.38;;
65174;SDS011;51761;42.126;24.752;2023-02-10T08:27:58;30.92;;;12.52;;
65174;SDS011;51761;42.126;24.752;2023-02-10T08:30:24;31.85;;;13.32;;
65174;SDS011;51761;42.126;24.752;2023-02-10T08:32:49;33.38;;;14.52;;
65174;SDS011;51761;42.126;24.752;2023-02-10T08:35:15;31.83;;;13.75;;
65174;SDS011;51761;42.126;24.752;2023-02-10T08:37:41;32.15;;;12.88;;
65174;SDS011;51761;42.126;24.752;2023-02-10T08:40:06;24.67;;;13.18;;
65174;SDS011;51761;42.126;24.752;2023-02-10T08:42:33;28.40;;;12.68;;
65174;SDS011;51761;42.126;24.752;2023-02-10T08:44:59;30.90;;;12.30;;
65174;SDS011;51761;42.126;24.752;2023-02-10T08:47:24;38.45;;;14.40;;
65174;SDS011;51761;42.126;24.752;2023-02-10T08:49:50;27.75;;;12.82;;
65174;SDS011;51761;42.126;24.752;2023-02-10T08:52:15;24.98;;;11.38;;
65174;SDS011;51761;42.126;24.752;2023-02-10T08:54:41;28.85;;;11.43;;
65174;SDS011;51761;42.126;24.752;2023-02-10T08:57:07;29.65;;;12.75;;
65174;SDS011;51761;42.126;24.752;2023-02-10T08:59:33;29.23;;;11.60;;
65174;SDS011;51761;42.126;24.752;2023-02-10T09:01:58;28.48;;;12.15;;
65174;SDS011;51761;42.126;24.752;2023-02-10T09:04:24;24.95;;;11.23;;
65174;SDS011;51761;42.126;24.752;2023-02-10T09:06:50;25.75;;;9.75;;
65174;SDS011;51761;42.126;24.752;2023-02-10T09:09:17;35.38;;;12.73;;
65174;SDS011;51761;42.126;24.752;2023-02-10T09:11:46;22.60;;;10.95;;
65174;SDS011;51761;42.126;24.752;2023-02-10T09:14:12;30.65;;;12.20;;
65174;SDS011;51761;42.126;24.752;2023-02-10T09:16:37;24.45;;;12.13;;
65174;SDS011;51761;42.126;24.752;2023-02-10T09:19:03;26.13;;;11.13;;
65174;SDS011;51761;42.126;24.752;2023-02-10T09:21:29;27.40;;;11.82;;
65174;SDS011;51761;42.126;24.752;2023-02-10T09:23:55;27.40;;;10.90;;
65174;SDS011;51761;42.126;24.752;2023-02-10T09:26:20;20.30;;;10.75;;
65174;SDS011;51761;42.126;24.752;2023-02-10T09:28:46;27.45;;;12.75;;
65174;SDS011;51761;42.126;24.752;2023-02-10T09:31:12;25.35;;;11.88;;
65174;SDS011;51761;42.126;24.752;2023-02-10T09:33:38;26.70;;;11.45;;
65174;SDS011;51761;42.126;24.752;2023-02-10T09:36:05;29.23;;;13.15;;
65174;SDS011;51761;42.126;24.752;2023-02-10T09:38:31;24.10;;;10.68;;
65174;SDS011;51761;42.126;24.752;2023-02-10T09:44:03;23.30;;;11.18;;
65174;SDS011;51761;42.126;24.752;2023-02-10T09:49:26;24.10;;;11.15;;
65174;SDS011;51761;42.126;24.752;2023-02-10T09:54:40;30.88;;;13.57;;
65174;SDS011;51761;42.126;24.752;2023-02-10T09:57:15;28.33;;;11.57;;
65174;SDS011;51761;42.126;24.752;2023-02-10T09:59:44;25.50;;;11.80;;
65174;SDS011;51761;42.126;24.752;2023-02-10T10:02:21;25.10;;;11.13;;
65174;SDS011;51761;42.126;24.752;2023-02-10T10:04:53;22.92;;;10.07;;
65174;SDS011;51761;42.126;24.752;2023-02-10T10:10:02;23.88;;;11.38;;
65174;SDS011;51761;42.126;24.752;2023-02-10T10:12:45;20.80;;;10.73;;
65174;SDS011;51761;42.126;24.752;2023-02-10T10:15:14;29.95;;;12.20;;
65174;SDS011;51761;42.126;24.752;2023-02-10T10:25:56;21.35;;;10.80;;
65174;SDS011;51761;42.126;24.752;2023-02-10T10:28:48;24.13;;;10.85;;
65174;SDS011;51761;42.126;24.752;2023-02-10T10:31:35;29.77;;;10.38;;
65174;SDS011;51761;42.126;24.752;2023-02-10T10:36:34;33.10;;;11.57;;
65174;SDS011;51761;42.126;24.752;2023-02-10T10:42:03;30.20;;;10.48;;
65174;SDS011;51761;42.126;24.752;2023-02-10T10:44:40;42.75;;;19.42;;
65174;SDS011;51761;42.126;24.752;2023-02-10T10:47:12;27.10;;;11.98;;
65174;SDS011;51761;42.126;24.752;2023-02-10T10:49:42;33.17;;;12.00;;
65174;SDS011;51761;42.126;24.752;2023-02-10T10:52:30;19.58;;;10.07;;
65174;SDS011;51761;42.126;24.752;2023-02-10T10:55:06;23.50;;;10.43;;
65174;SDS011;51761;42.126;24.752;2023-02-10T10:57:39;21.27;;;9.40;;
65174;SDS011;51761;42.126;24.752;2023-02-10T11:02:50;26.08;;;12.48;;
65174;SDS011;51761;42.126;24.752;2023-02-10T11:05:32;20.52;;;9.43;;
65174;SDS011;51761;42.126;24.752;2023-02-10T11:08:01;25.92;;;10.60;;
65174;SDS011;51761;42.126;24.752;2023-02-10T11:10:33;56.97;;;23.13;;
65174;SDS011;51761;42.126;24.752;2023-02-10T11:13:01;27.73;;;10.98;;
65174;SDS011;51761;42.126;24.752;2023-02-10T11:18:02;20.75;;;9.32;;
65174;SDS011;51761;42.126;24.752;2023-02-10T11:20:33;25.67;;;9.23;;
65174;SDS011;51761;42.126;24.752;2023-02-10T11:23:10;18.13;;;9.23;;
65174;SDS011;51761;42.126;24.752;2023-02-10T11:25:38;19.83;;;9.77;;
65174;SDS011;51761;42.126;24.752;2023-02-10T11:28:05;26.65;;;9.93;;
65174;SDS011;51761;42.126;24.752;2023-02-10T11:30:41;18.85;;;10.05;;
65174;SDS011;51761;42.126;24.752;2023-02-10T11:33:15;20.77;;;9.25;;
65174;SDS011;51761;42.126;24.752;2023-02-10T11:35:49;20.67;;;8.95;;
65174;SDS011;51761;42.126;24.752;2023-02-10T11:38:22;21.98;;;9.38;;
65174;SDS011;51761;42.126;24.752;2023-02-10T11:43:23;22.52;;;9.45;;
65174;SDS011;51761;42.126;24.752;2023-02-10T11:45:55;24.40;;;9.68;;
65174;SDS011;51761;42.126;24.752;2023-02-10T11:48:26;18.55;;;9.48;;
65174;SDS011;51761;42.126;24.752;2023-02-10T11:53:44;17.90;;;8.10;;
65174;SDS011;51761;42.126;24.752;2023-02-10T12:09:31;24.10;;;10.38;;
65174;SDS011;51761;42.126;24.752;2023-02-10T12:17:47;18.95;;;9.55;;
65174;SDS011;51761;42.126;24.752;2023-02-10T12:23:05;19.77;;;8.82;;
65174;SDS011;51761;42.126;24.752;2023-02-10T12:31:10;15.65;;;8.65;;
65174;SDS011;51761;42.126;24.752;2023-02-10T12:39:12;37.63;;;16.65;;
65174;SDS011;51761;42.126;24.752;2023-02-10T12:52:58;23.30;;;9.77;;
65174;SDS011;51761;42.126;24.752;2023-02-10T12:58:35;23.52;;;10.18;;
65174;SDS011;51761;42.126;24.752;2023-02-10T13:03:46;21.25;;;9.65;;
65174;SDS011;51761;42.126;24.752;2023-02-10T13:09:32;24.02;;;9.52;;
65174;SDS011;51761;42.126;24.752;2023-02-10T13:14:53;23.58;;;12.07;;
65174;SDS011;51761;42.126;24.752;2023-02-10T13:17:28;22.90;;;9.13;;
65174;SDS011;51761;42.126;24.752;2023-02-10T13:20:21;21.63;;;10.02;;
65174;SDS011;51761;42.126;24.752;2023-02-10T13:22:51;16.00;;;8.40;;
65174;SDS011;51761;42.126;24.752;2023-02-10T13:25:21;21.23;;;9.73;;
65174;SDS011;51761;42.126;24.752;2023-02-10T13:34:03;16.95;;;7.97;;
65174;SDS011;51761;42.126;24.752;2023-02-10T13:36:30;24.08;;;10.23;;
65174;SDS011;51761;42.126;24.752;2023-02-10T13:39:03;29.30;;;10.20;;
65174;SDS011;51761;42.126;24.752;2023-02-10T13:41:39;20.63;;;9.48;;
65174;SDS011;51761;42.126;24.752;2023-02-10T13:49:52;22.45;;;10.02;;
65174;SDS011;51761;42.126;24.752;2023-02-10T13:52:23;22.20;;;9.20;;
65174;SDS011;51761;42.126;24.752;2023-02-10T13:57:33;20.63;;;8.52;;
65174;SDS011;51761;42.126;24.752;2023-02-10T14:00:09;27.17;;;8.75;;
65174;SDS011;51761;42.126;24.752;2023-02-10T14:02:36;22.25;;;9.82;;
65174;SDS011;51761;42.126;24.752;2023-02-10T14:05:02;22.00;;;10.27;;
65174;SDS011;51761;42.126;24.752;2023-02-10T14:12:57;21.08;;;10.07;;
65174;SDS011;51761;42.126;24.752;2023-02-10T14:15:30;25.80;;;10.70;;
65174;SDS011;51761;42.126;24.752;2023-02-10T14:18:00;21.70;;;10.57;;
65174;SDS011;51761;42.126;24.752;2023-02-10T14:20:33;27.10;;;9.82;;
65174;SDS011;51761;42.126;24.752;2023-02-10T14:23:01;22.65;;;9.90;;
65174;SDS011;51761;42.126;24.752;2023-02-10T14:27:58;25.92;;;9.70;;
65174;SDS011;51761;42.126;24.752;2023-02-10T14:30:27;21.67;;;9.85;;
65174;SDS011;51761;42.126;24.752;2023-02-10T14:32:58;21.08;;;9.43;;
65174;SDS011;51761;42.126;24.752;2023-02-10T14:35:24;25.50;;;10.10;;
65174;SDS011;51761;42.126;24.752;2023-02-10T14:37:51;22.63;;;10.30;;
65174;SDS011;51761;42.126;24.752;2023-02-10T14:40:19;22.90;;;10.48;;
65174;SDS011;51761;42.126;24.752;2023-02-10T14:42:46;24.63;;;10.30;;
65174;SDS011;51761;42.126;24.752;2023-02-10T14:45:17;23.33;;;9.95;;
65174;SDS011;51761;42.126;24.752;2023-02-10T14:47:45;28.60;;;11.00;;
65174;SDS011;51761;42.126;24.752;2023-02-10T14:50:33;28.20;;;9.80;;
65174;SDS011;51761;42.126;24.752;2023-02-10T14:53:01;24.80;;;10.02;;
65174;SDS011;51761;42.126;24.752;2023-02-10T14:55:36;20.38;;;9.73;;
65174;SDS011;51761;42.126;24.752;2023-02-10T14:58:09;19.55;;;9.98;;
65174;SDS011;51761;42.126;24.752;2023-02-10T15:00:35;25.98;;;9.68;;
65174;SDS011;51761;42.126;24.752;2023-02-10T15:03:02;23.98;;;8.70;;
65174;SDS011;51761;42.126;24.752;2023-02-10T15:05:37;24.83;;;9.63;;
65174;SDS011;51761;42.126;24.752;2023-02-10T15:08:04;18.60;;;9.13;;
65174;SDS011;51761;42.126;24.752;2023-02-10T15:10:34;30.70;;;10.50;;
65174;SDS011;51761;42.126;24.752;2023-02-10T15:13:04;26.27;;;11.35;;
65174;SDS011;51761;42.126;24.752;2023-02-10T15:15:35;36.30;;;15.55;;
65174;SDS011;51761;42.126;24.752;2023-02-10T15:18:14;21.73;;;10.07;;
65174;SDS011;51761;42.126;24.752;2023-02-10T15:20:52;21.65;;;8.95;;
65174;SDS011;51761;42.126;24.752;2023-02-10T15:23:19;31.17;;;9.05;;
65174;SDS011;51761;42.126;24.752;2023-02-10T15:25:44;25.25;;;9.85;;
65174;SDS011;51761;42.126;24.752;2023-02-10T15:30:50;20.98;;;10.27;;
65174;SDS011;51761;42.126;24.752;2023-02-10T15:41:25;26.17;;;10.43;;
65174;SDS011;51761;42.126;24.752;2023-02-10T15:43:53;26.83;;;9.98;;
65174;SDS011;51761;42.126;24.752;2023-02-10T15:46:19;22.23;;;9.70;;
65174;SDS011;51761;42.126;24.752;2023-02-10T15:48:48;23.33;;;10.73;;
65174;SDS011;51761;42.126;24.752;2023-02-10T15:51:26;31.63;;;11.50;;
65174;SDS011;51761;42.126;24.752;2023-02-10T15:53:53;48.92;;;18.42;;
65174;SDS011;51761;42.126;24.752;2023-02-10T15:56:21;56.80;;;21.38;;
65174;SDS011;51761;42.126;24.752;2023-02-10T15:58:47;31.65;;;13.90;;
65174;SDS011;51761;42.126;24.752;2023-02-10T16:01:13;43.33;;;15.85;;
65174;SDS011;51761;42.126;24.752;2023-02-10T16:03:39;45.40;;;16.58;;
65174;SDS011;51761;42.126;24.752;2023-02-10T16:06:04;58.47;;;21.38;;
65174;SDS011;51761;42.126;24.752;2023-02-10T16:08:30;46.33;;;18.88;;
65174;SDS011;51761;42.126;24.752;2023-02-10T16:10:56;65.10;;;23.80;;
65174;SDS011;51761;42.126;24.752;2023-02-10T16:13:22;67.25;;;27.30;;
65174;SDS011;51761;42.126;24.752;2023-02-10T16:15:48;43.67;;;17.20;;
65174;SDS011;51761;42.126;24.752;2023-02-10T16:18:18;52.15;;;18.05;;
65174;SDS011;51761;42.126;24.752;2023-02-10T16:20:46;47.85;;;18.02;;
65174;SDS011;51761;42.126;24.752;2023-02-10T16:23:12;44.67;;;16.77;;
65174;SDS011;51761;42.126;24.752;2023-02-10T16:25:40;88.85;;;26.05;;
65174;SDS011;51761;42.126;24.752;2023-02-10T16:28:06;74.32;;;27.88;;
65174;SDS011;51761;42.126;24.752;2023-02-10T16:30:32;66.53;;;24.13;;
65174;SDS011;51761;42.126;24.752;2023-02-10T16:32:58;59.40;;;21.45;;
65174;SDS011;51761;42.126;24.752;2023-02-10T16:35:24;64.05;;;22.90;;
65174;SDS011;51761;42.126;24.752;2023-02-10T16:37:51;73.50;;;24.30;;
65174;SDS011;51761;42.126;24.752;2023-02-10T16:40:36;70.95;;;27.85;;
65174;SDS011;51761;42.126;24.752;2023-02-10T16:43:06;70.85;;;29.50;;